sensor_id;sensor_type;location;lat;lon;timestamp;P1;durP1;ratioP1;P2;durP2;ratioP2
20391;SDS011;10355;53.688;10.078;2023-07-13T00:02:27;6.38;;;1.60;;
20391;SDS011;10355;53.688;10.078;2023-07-13T00:05:10;4.65;;;1.60;;
20391;SDS011;10355;53.688;10.078;2023-07-13T00:07:53;4.07;;;1.70;;
20391;SDS011;10355;53.688;10.078;2023-07-13T00:10:39;4.40;;;1.88;;
20391;SDS011;10355;53.688;10.078;2023-07-13T00:13:21;6.05;;;1.80;;
20391;SDS011;10355;53.688;10.078;2023-07-13T00:16:04;5.60;;;1.73;;
20391;SDS011;10355;53.688;10.078;2023-07-13T00:18:48;5.22;;;1.60;;
20391;SDS011;10355;53.688;10.078;2023-07-13T00:21:31;4.85;;;1.95;;
20391;SDS011;10355;53.688;10.078;2023-07-13T00:24:16;3.60;;;1.60;;
20391;SDS011;10355;53.688;10.078;2023-07-13T00:27:03;3.60;;;1.90;;
20391;SDS011;10355;53.688;10.078;2023-07-13T00:29:46;2.42;;;1.60;;
20391;SDS011;10355;53.688;10.078;2023-07-13T00:32:29;3.78;;;1.63;;
20391;SDS011;10355;53.688;10.078;2023-07-13T00:35:15;3.55;;;1.70;;
20391;SDS011;10355;53.688;10.078;2023-07-13T00:37:58;2.85;;;1.95;;
20391;SDS011;10355;53.688;10.078;2023-07-13T00:40:41;3.10;;;1.85;;
20391;SDS011;10355;53.688;10.078;2023-07-13T00:43:25;4.32;;;1.80;;
20391;SDS011;10355;53.688;10.078;2023-07-13T00:46:13;3.20;;;1.60;;
20391;SDS011;10355;53.688;10.078;2023-07-13T00:48:57;3.58;;;1.92;;
20391;SDS011;10355;53.688;10.078;2023-07-13T00:51:43;2.97;;;1.67;;
20391;SDS011;10355;53.688;10.078;2023-07-13T00:54:27;2.60;;;1.70;;
20391;SDS011;10355;53.688;10.078;2023-07-13T00:57:11;2.30;;;1.50;;
20391;SDS011;10355;53.688;10.078;2023-07-13T01:00:00;3.08;;;1.63;;
20391;SDS011;10355;53.688;10.078;2023-07-13T01:02:48;2.30;;;1.55;;
20391;SDS011;10355;53.688;10.078;2023-07-13T01:05:32;3.85;;;1.70;;
20391;SDS011;10355;53.688;10.078;2023-07-13T01:08:16;3.00;;;1.65;;
20391;SDS011;10355;53.688;10.078;2023-07-13T01:10:59;4.38;;;1.50;;
20391;SDS011;10355;53.688;10.078;2023-07-13T01:13:42;2.67;;;1.75;;
20391;SDS011;10355;53.688;10.078;2023-07-13T01:16:25;2.90;;;1.70;;
20391;SDS011;10355;53.688;10.078;2023-07-13T01:19:12;1.50;;;1.30;;
20391;SDS011;10355;53.688;10.078;2023-07-13T01:21:58;3.55;;;1.30;;
20391;SDS011;10355;53.688;10.078;2023-07-13T01:24:43;6.30;;;1.85;;
20391;SDS011;10355;53.688;10.078;2023-07-13T01:27:26;5.10;;;1.90;;
20391;SDS011;10355;53.688;10.078;2023-07-13T01:30:09;4.13;;;1.90;;
20391;SDS011;10355;53.688;10.078;2023-07-13T01:32:52;3.47;;;1.77;;
20391;SDS011;10355;53.688;10.078;2023-07-13T01:35:35;4.20;;;1.52;;
20391;SDS011;10355;53.688;10.078;2023-07-13T01:38:21;4.38;;;1.92;;
20391;SDS011;10355;53.688;10.078;2023-07-13T01:41:04;4.93;;;1.50;;
20391;SDS011;10355;53.688;10.078;2023-07-13T01:43:46;2.30;;;1.40;;
20391;SDS011;10355;53.688;10.078;2023-07-13T01:46:29;4.20;;;1.50;;
20391;SDS011;10355;53.688;10.078;2023-07-13T01:49:12;7.60;;;1.67;;
20391;SDS011;10355;53.688;10.078;2023-07-13T01:51:55;3.38;;;1.50;;
20391;SDS011;10355;53.688;10.078;2023-07-13T01:54:39;3.75;;;1.52;;
20391;SDS011;10355;53.688;10.078;2023-07-13T01:57:23;4.15;;;1.40;;
20391;SDS011;10355;53.688;10.078;2023-07-13T02:00:06;2.90;;;1.55;;
20391;SDS011;10355;53.688;10.078;2023-07-13T02:03:01;1.83;;;1.30;;
20391;SDS011;10355;53.688;10.078;2023-07-13T02:05:46;3.85;;;1.60;;
20391;SDS011;10355;53.688;10.078;2023-07-13T02:08:29;4.10;;;1.67;;
20391;SDS011;10355;53.688;10.078;2023-07-13T02:11:13;2.50;;;1.70;;
20391;SDS011;10355;53.688;10.078;2023-07-13T02:13:55;2.42;;;1.50;;
20391;SDS011;10355;53.688;10.078;2023-07-13T02:16:38;3.40;;;1.60;;
20391;SDS011;10355;53.688;10.078;2023-07-13T02:19:21;6.10;;;1.88;;
20391;SDS011;10355;53.688;10.078;2023-07-13T02:22:04;3.53;;;1.67;;
20391;SDS011;10355;53.688;10.078;2023-07-13T02:24:47;2.30;;;1.33;;
20391;SDS011;10355;53.688;10.078;2023-07-13T02:27:33;2.58;;;1.40;;
20391;SDS011;10355;53.688;10.078;2023-07-13T02:30:16;2.15;;;1.60;;
20391;SDS011;10355;53.688;10.078;2023-07-13T02:32:59;3.65;;;1.50;;
20391;SDS011;10355;53.688;10.078;2023-07-13T02:35:42;2.83;;;1.80;;
20391;SDS011;10355;53.688;10.078;2023-07-13T02:38:24;3.28;;;1.70;;
20391;SDS011;10355;53.688;10.078;2023-07-13T02:41:07;4.18;;;1.98;;
20391;SDS011;10355;53.688;10.078;2023-07-13T02:43:51;3.03;;;1.60;;
20391;SDS011;10355;53.688;10.078;2023-07-13T02:46:35;4.53;;;1.80;;
20391;SDS011;10355;53.688;10.078;2023-07-13T02:49:18;2.88;;;1.40;;
20391;SDS011;10355;53.688;10.078;2023-07-13T02:52:02;3.72;;;1.70;;
20391;SDS011;10355;53.688;10.078;2023-07-13T02:54:45;3.55;;;1.55;;
20391;SDS011;10355;53.688;10.078;2023-07-13T02:57:28;4.78;;;1.63;;
20391;SDS011;10355;53.688;10.078;2023-07-13T03:00:13;2.78;;;1.55;;
20391;SDS011;10355;53.688;10.078;2023-07-13T03:02:58;3.25;;;1.75;;
20391;SDS011;10355;53.688;10.078;2023-07-13T03:05:42;2.28;;;1.58;;
20391;SDS011;10355;53.688;10.078;2023-07-13T03:08:27;2.42;;;1.70;;
20391;SDS011;10355;53.688;10.078;2023-07-13T03:11:11;3.63;;;1.65;;
20391;SDS011;10355;53.688;10.078;2023-07-13T03:13:56;3.83;;;1.90;;
20391;SDS011;10355;53.688;10.078;2023-07-13T03:16:42;2.10;;;1.88;;
20391;SDS011;10355;53.688;10.078;2023-07-13T03:19:26;3.03;;;1.63;;
20391;SDS011;10355;53.688;10.078;2023-07-13T03:22:09;5.28;;;1.85;;
20391;SDS011;10355;53.688;10.078;2023-07-13T03:24:54;7.35;;;1.90;;
20391;SDS011;10355;53.688;10.078;2023-07-13T03:27:37;3.55;;;1.88;;
20391;SDS011;10355;53.688;10.078;2023-07-13T03:30:24;4.57;;;1.60;;
20391;SDS011;10355;53.688;10.078;2023-07-13T03:33:08;4.13;;;1.70;;
20391;SDS011;10355;53.688;10.078;2023-07-13T03:35:51;5.63;;;1.92;;
20391;SDS011;10355;53.688;10.078;2023-07-13T03:38:34;4.47;;;2.10;;
20391;SDS011;10355;53.688;10.078;2023-07-13T03:41:17;5.07;;;1.70;;
20391;SDS011;10355;53.688;10.078;2023-07-13T03:44:02;6.65;;;2.08;;
20391;SDS011;10355;53.688;10.078;2023-07-13T03:46:45;2.88;;;2.00;;
20391;SDS011;10355;53.688;10.078;2023-07-13T03:49:30;3.60;;;1.80;;
20391;SDS011;10355;53.688;10.078;2023-07-13T03:52:13;4.90;;;1.98;;
20391;SDS011;10355;53.688;10.078;2023-07-13T03:54:56;7.65;;;2.20;;
20391;SDS011;10355;53.688;10.078;2023-07-13T03:57:39;6.07;;;1.58;;
20391;SDS011;10355;53.688;10.078;2023-07-13T04:00:23;3.78;;;1.80;;
20391;SDS011;10355;53.688;10.078;2023-07-13T04:03:07;5.03;;;1.90;;
20391;SDS011;10355;53.688;10.078;2023-07-13T04:05:51;5.78;;;1.95;;
20391;SDS011;10355;53.688;10.078;2023-07-13T04:08:35;3.50;;;2.08;;
20391;SDS011;10355;53.688;10.078;2023-07-13T04:11:19;3.63;;;2.05;;
20391;SDS011;10355;53.688;10.078;2023-07-13T04:14:02;3.67;;;2.20;;
20391;SDS011;10355;53.688;10.078;2023-07-13T04:16:45;6.00;;;2.08;;
20391;SDS011;10355;53.688;10.078;2023-07-13T04:19:28;3.13;;;1.90;;
20391;SDS011;10355;53.688;10.078;2023-07-13T04:22:12;5.60;;;2.20;;
20391;SDS011;10355;53.688;10.078;2023-07-13T04:24:55;3.92;;;1.90;;
20391;SDS011;10355;53.688;10.078;2023-07-13T04:27:37;4.20;;;1.90;;
20391;SDS011;10355;53.688;10.078;2023-07-13T04:30:20;4.05;;;1.88;;
20391;SDS011;10355;53.688;10.078;2023-07-13T04:33:03;8.82;;;2.50;;
20391;SDS011;10355;53.688;10.078;2023-07-13T04:35:46;2.95;;;1.90;;
20391;SDS011;10355;53.688;10.078;2023-07-13T04:38:30;6.20;;;1.73;;
20391;SDS011;10355;53.688;10.078;2023-07-13T04:41:14;4.57;;;1.88;;
20391;SDS011;10355;53.688;10.078;2023-07-13T04:43:57;3.95;;;1.75;;
20391;SDS011;10355;53.688;10.078;2023-07-13T04:46:40;4.20;;;1.75;;
20391;SDS011;10355;53.688;10.078;2023-07-13T04:49:23;3.20;;;1.63;;
20391;SDS011;10355;53.688;10.078;2023-07-13T04:52:06;4.97;;;1.90;;
20391;SDS011;10355;53.688;10.078;2023-07-13T04:54:50;10.07;;;2.10;;
20391;SDS011;10355;53.688;10.078;2023-07-13T04:57:33;4.57;;;1.90;;
20391;SDS011;10355;53.688;10.078;2023-07-13T05:00:16;3.95;;;1.95;;
20391;SDS011;10355;53.688;10.078;2023-07-13T05:02:58;4.20;;;1.80;;
20391;SDS011;10355;53.688;10.078;2023-07-13T05:05:41;4.45;;;1.70;;
20391;SDS011;10355;53.688;10.078;2023-07-13T05:08:24;4.15;;;1.63;;
20391;SDS011;10355;53.688;10.078;2023-07-13T05:11:08;5.22;;;1.70;;
20391;SDS011;10355;53.688;10.078;2023-07-13T05:13:51;4.57;;;1.63;;
20391;SDS011;10355;53.688;10.078;2023-07-13T05:16:34;6.15;;;1.80;;
20391;SDS011;10355;53.688;10.078;2023-07-13T05:19:17;5.90;;;1.63;;
20391;SDS011;10355;53.688;10.078;2023-07-13T05:21:59;6.57;;;1.58;;
20391;SDS011;10355;53.688;10.078;2023-07-13T05:24:43;4.97;;;2.00;;
20391;SDS011;10355;53.688;10.078;2023-07-13T05:27:27;6.68;;;2.10;;
20391;SDS011;10355;53.688;10.078;2023-07-13T05:30:10;6.28;;;2.00;;
20391;SDS011;10355;53.688;10.078;2023-07-13T05:32:53;5.80;;;2.03;;
20391;SDS011;10355;53.688;10.078;2023-07-13T05:35:36;3.20;;;1.60;;
20391;SDS011;10355;53.688;10.078;2023-07-13T05:38:19;5.72;;;2.03;;
20391;SDS011;10355;53.688;10.078;2023-07-13T05:41:01;5.13;;;2.20;;
20391;SDS011;10355;53.688;10.078;2023-07-13T05:43:48;6.20;;;1.90;;
20391;SDS011;10355;53.688;10.078;2023-07-13T05:46:30;6.15;;;2.08;;
20391;SDS011;10355;53.688;10.078;2023-07-13T05:49:13;5.63;;;1.65;;
20391;SDS011;10355;53.688;10.078;2023-07-13T05:51:57;3.53;;;1.50;;
20391;SDS011;10355;53.688;10.078;2023-07-13T05:54:40;6.60;;;2.00;;
20391;SDS011;10355;53.688;10.078;2023-07-13T05:57:22;6.75;;;1.98;;
20391;SDS011;10355;53.688;10.078;2023-07-13T06:00:07;8.45;;;2.00;;
20391;SDS011;10355;53.688;10.078;2023-07-13T06:02:55;6.70;;;1.90;;
20391;SDS011;10355;53.688;10.078;2023-07-13T06:05:38;6.50;;;2.00;;
20391;SDS011;10355;53.688;10.078;2023-07-13T06:08:21;4.78;;;1.90;;
20391;SDS011;10355;53.688;10.078;2023-07-13T06:11:04;5.65;;;1.75;;
20391;SDS011;10355;53.688;10.078;2023-07-13T06:13:47;5.18;;;1.98;;
20391;SDS011;10355;53.688;10.078;2023-07-13T06:16:31;7.25;;;1.95;;
20391;SDS011;10355;53.688;10.078;2023-07-13T06:19:14;6.40;;;2.20;;
20391;SDS011;10355;53.688;10.078;2023-07-13T06:21:57;8.57;;;1.95;;
20391;SDS011;10355;53.688;10.078;2023-07-13T06:24:40;4.18;;;1.80;;
20391;SDS011;10355;53.688;10.078;2023-07-13T06:27:23;6.72;;;2.03;;
20391;SDS011;10355;53.688;10.078;2023-07-13T06:30:07;6.18;;;1.90;;
20391;SDS011;10355;53.688;10.078;2023-07-13T06:32:51;6.55;;;1.88;;
20391;SDS011;10355;53.688;10.078;2023-07-13T06:35:34;7.45;;;2.08;;
20391;SDS011;10355;53.688;10.078;2023-07-13T06:38:17;4.63;;;1.73;;
20391;SDS011;10355;53.688;10.078;2023-07-13T06:41:00;5.18;;;1.80;;
20391;SDS011;10355;53.688;10.078;2023-07-13T06:43:43;8.00;;;2.03;;
20391;SDS011;10355;53.688;10.078;2023-07-13T06:46:25;5.78;;;1.58;;
20391;SDS011;10355;53.688;10.078;2023-07-13T06:49:10;7.85;;;1.90;;
20391;SDS011;10355;53.688;10.078;2023-07-13T06:51:53;7.60;;;1.73;;
20391;SDS011;10355;53.688;10.078;2023-07-13T06:54:36;7.15;;;1.70;;
20391;SDS011;10355;53.688;10.078;2023-07-13T06:57:18;7.35;;;2.25;;
20391;SDS011;10355;53.688;10.078;2023-07-13T07:00:01;5.57;;;1.40;;
20391;SDS011;10355;53.688;10.078;2023-07-13T07:02:44;5.78;;;1.80;;
20391;SDS011;10355;53.688;10.078;2023-07-13T07:05:28;8.95;;;1.63;;
20391;SDS011;10355;53.688;10.078;2023-07-13T07:08:11;5.55;;;1.58;;
20391;SDS011;10355;53.688;10.078;2023-07-13T07:10:54;6.18;;;1.70;;
20391;SDS011;10355;53.688;10.078;2023-07-13T07:13:36;7.03;;;1.67;;
20391;SDS011;10355;53.688;10.078;2023-07-13T07:16:19;5.40;;;1.50;;
20391;SDS011;10355;53.688;10.078;2023-07-13T07:19:02;6.57;;;1.60;;
20391;SDS011;10355;53.688;10.078;2023-07-13T07:21:46;6.38;;;1.58;;
20391;SDS011;10355;53.688;10.078;2023-07-13T07:24:29;6.35;;;1.42;;
20391;SDS011;10355;53.688;10.078;2023-07-13T07:27:13;5.63;;;1.80;;
20391;SDS011;10355;53.688;10.078;2023-07-13T07:29:59;6.45;;;1.88;;
20391;SDS011;10355;53.688;10.078;2023-07-13T07:33:02;6.75;;;1.70;;
20391;SDS011;10355;53.688;10.078;2023-07-13T07:35:46;8.77;;;1.88;;
20391;SDS011;10355;53.688;10.078;2023-07-13T07:38:33;6.25;;;1.70;;
20391;SDS011;10355;53.688;10.078;2023-07-13T07:41:16;7.70;;;1.60;;
20391;SDS011;10355;53.688;10.078;2023-07-13T07:44:02;5.93;;;1.63;;
20391;SDS011;10355;53.688;10.078;2023-07-13T07:46:46;9.07;;;1.58;;
20391;SDS011;10355;53.688;10.078;2023-07-13T07:49:29;4.55;;;1.25;;
20391;SDS011;10355;53.688;10.078;2023-07-13T07:52:12;6.78;;;1.40;;
20391;SDS011;10355;53.688;10.078;2023-07-13T07:54:56;4.35;;;1.25;;
20391;SDS011;10355;53.688;10.078;2023-07-13T07:57:42;3.75;;;1.30;;
20391;SDS011;10355;53.688;10.078;2023-07-13T08:00:28;5.57;;;1.33;;
20391;SDS011;10355;53.688;10.078;2023-07-13T08:03:33;7.38;;;1.60;;
20391;SDS011;10355;53.688;10.078;2023-07-13T08:06:18;3.90;;;1.27;;
20391;SDS011;10355;53.688;10.078;2023-07-13T08:09:06;6.85;;;1.40;;
20391;SDS011;10355;53.688;10.078;2023-07-13T08:11:50;5.63;;;1.40;;
20391;SDS011;10355;53.688;10.078;2023-07-13T08:14:36;4.82;;;1.55;;
20391;SDS011;10355;53.688;10.078;2023-07-13T08:17:33;8.18;;;1.23;;
20391;SDS011;10355;53.688;10.078;2023-07-13T08:20:16;4.40;;;1.40;;
20391;SDS011;10355;53.688;10.078;2023-07-13T08:22:59;6.93;;;1.38;;
20391;SDS011;10355;53.688;10.078;2023-07-13T08:25:42;7.80;;;1.40;;
20391;SDS011;10355;53.688;10.078;2023-07-13T08:28:26;3.42;;;1.00;;
20391;SDS011;10355;53.688;10.078;2023-07-13T08:31:09;4.65;;;1.25;;
20391;SDS011;10355;53.688;10.078;2023-07-13T08:33:53;4.30;;;1.17;;
20391;SDS011;10355;53.688;10.078;2023-07-13T08:36:36;4.72;;;1.50;;
20391;SDS011;10355;53.688;10.078;2023-07-13T08:39:18;4.45;;;1.23;;
20391;SDS011;10355;53.688;10.078;2023-07-13T08:42:04;5.55;;;1.30;;
20391;SDS011;10355;53.688;10.078;2023-07-13T08:44:49;3.75;;;1.05;;
20391;SDS011;10355;53.688;10.078;2023-07-13T08:47:35;7.72;;;1.27;;
20391;SDS011;10355;53.688;10.078;2023-07-13T08:50:20;7.60;;;1.58;;
20391;SDS011;10355;53.688;10.078;2023-07-13T08:53:04;8.65;;;1.27;;
20391;SDS011;10355;53.688;10.078;2023-07-13T08:55:46;5.45;;;1.33;;
20391;SDS011;10355;53.688;10.078;2023-07-13T08:58:30;4.30;;;1.30;;
20391;SDS011;10355;53.688;10.078;2023-07-13T09:01:15;4.70;;;1.20;;
20391;SDS011;10355;53.688;10.078;2023-07-13T09:04:03;4.85;;;1.20;;
20391;SDS011;10355;53.688;10.078;2023-07-13T09:06:49;4.88;;;1.10;;
20391;SDS011;10355;53.688;10.078;2023-07-13T09:09:41;6.45;;;1.40;;
20391;SDS011;10355;53.688;10.078;2023-07-13T09:12:30;5.13;;;1.13;;
20391;SDS011;10355;53.688;10.078;2023-07-13T09:15:23;4.15;;;1.25;;
20391;SDS011;10355;53.688;10.078;2023-07-13T09:18:10;4.65;;;1.45;;
20391;SDS011;10355;53.688;10.078;2023-07-13T09:20:54;7.60;;;1.42;;
20391;SDS011;10355;53.688;10.078;2023-07-13T09:23:38;4.53;;;1.30;;
20391;SDS011;10355;53.688;10.078;2023-07-13T09:26:22;4.65;;;1.17;;
20391;SDS011;10355;53.688;10.078;2023-07-13T09:29:09;3.72;;;1.05;;
20391;SDS011;10355;53.688;10.078;2023-07-13T09:31:54;3.38;;;1.15;;
20391;SDS011;10355;53.688;10.078;2023-07-13T09:34:43;5.05;;;1.20;;
20391;SDS011;10355;53.688;10.078;2023-07-13T09:37:32;3.53;;;1.30;;
20391;SDS011;10355;53.688;10.078;2023-07-13T09:40:17;3.17;;;1.02;;
20391;SDS011;10355;53.688;10.078;2023-07-13T09:43:04;3.45;;;1.20;;
20391;SDS011;10355;53.688;10.078;2023-07-13T09:45:49;3.22;;;1.20;;
20391;SDS011;10355;53.688;10.078;2023-07-13T09:48:33;4.97;;;1.27;;
20391;SDS011;10355;53.688;10.078;2023-07-13T09:51:18;4.07;;;1.33;;
20391;SDS011;10355;53.688;10.078;2023-07-13T09:54:01;5.18;;;0.95;;
20391;SDS011;10355;53.688;10.078;2023-07-13T09:56:44;4.82;;;1.40;;
20391;SDS011;10355;53.688;10.078;2023-07-13T09:59:28;3.33;;;1.30;;
20391;SDS011;10355;53.688;10.078;2023-07-13T10:02:24;5.22;;;1.35;;
20391;SDS011;10355;53.688;10.078;2023-07-13T10:05:11;5.47;;;1.20;;
20391;SDS011;10355;53.688;10.078;2023-07-13T10:07:57;6.55;;;1.30;;
20391;SDS011;10355;53.688;10.078;2023-07-13T10:10:40;3.92;;;0.98;;
20391;SDS011;10355;53.688;10.078;2023-07-13T10:13:26;3.88;;;1.20;;
20391;SDS011;10355;53.688;10.078;2023-07-13T10:16:10;3.10;;;0.95;;
20391;SDS011;10355;53.688;10.078;2023-07-13T10:18:53;2.50;;;1.13;;
20391;SDS011;10355;53.688;10.078;2023-07-13T10:21:50;6.80;;;1.55;;
20391;SDS011;10355;53.688;10.078;2023-07-13T10:24:38;3.15;;;1.20;;
20391;SDS011;10355;53.688;10.078;2023-07-13T10:27:23;6.40;;;1.30;;
20391;SDS011;10355;53.688;10.078;2023-07-13T10:30:11;3.95;;;1.17;;
20391;SDS011;10355;53.688;10.078;2023-07-13T10:32:57;4.90;;;1.30;;
20391;SDS011;10355;53.688;10.078;2023-07-13T10:35:40;5.60;;;1.50;;
20391;SDS011;10355;53.688;10.078;2023-07-13T10:38:24;2.95;;;1.20;;
20391;SDS011;10355;53.688;10.078;2023-07-13T10:41:12;3.30;;;1.33;;
20391;SDS011;10355;53.688;10.078;2023-07-13T10:43:58;7.07;;;1.30;;
20391;SDS011;10355;53.688;10.078;2023-07-13T10:46:41;2.40;;;1.20;;
20391;SDS011;10355;53.688;10.078;2023-07-13T10:49:24;5.47;;;1.38;;
20391;SDS011;10355;53.688;10.078;2023-07-13T10:52:20;5.28;;;1.10;;
20391;SDS011;10355;53.688;10.078;2023-07-13T10:55:35;4.75;;;1.20;;
20391;SDS011;10355;53.688;10.078;2023-07-13T10:58:23;4.18;;;1.20;;
20391;SDS011;10355;53.688;10.078;2023-07-13T11:01:11;7.97;;;1.38;;
20391;SDS011;10355;53.688;10.078;2023-07-13T11:03:56;6.53;;;1.30;;
20391;SDS011;10355;53.688;10.078;2023-07-13T11:06:45;3.72;;;1.10;;
20391;SDS011;10355;53.688;10.078;2023-07-13T11:09:35;3.78;;;1.30;;
20391;SDS011;10355;53.688;10.078;2023-07-13T11:12:29;5.07;;;1.30;;
20391;SDS011;10355;53.688;10.078;2023-07-13T11:15:42;2.83;;;1.13;;
20391;SDS011;10355;53.688;10.078;2023-07-13T11:18:25;3.35;;;1.35;;
20391;SDS011;10355;53.688;10.078;2023-07-13T11:21:18;2.63;;;1.05;;
20391;SDS011;10355;53.688;10.078;2023-07-13T11:24:14;5.10;;;1.20;;
20391;SDS011;10355;53.688;10.078;2023-07-13T11:26:59;4.55;;;1.55;;
20391;SDS011;10355;53.688;10.078;2023-07-13T11:29:41;2.50;;;1.20;;
20391;SDS011;10355;53.688;10.078;2023-07-13T11:32:30;2.72;;;1.10;;
20391;SDS011;10355;53.688;10.078;2023-07-13T11:35:14;3.78;;;1.15;;
20391;SDS011;10355;53.688;10.078;2023-07-13T11:37:59;3.22;;;1.35;;
20391;SDS011;10355;53.688;10.078;2023-07-13T11:40:42;3.38;;;1.15;;
20391;SDS011;10355;53.688;10.078;2023-07-13T11:43:27;5.65;;;1.10;;
20391;SDS011;10355;53.688;10.078;2023-07-13T11:46:14;5.90;;;1.00;;
20391;SDS011;10355;53.688;10.078;2023-07-13T11:48:59;3.22;;;1.08;;
20391;SDS011;10355;53.688;10.078;2023-07-13T11:51:41;2.08;;;1.10;;
20391;SDS011;10355;53.688;10.078;2023-07-13T11:54:26;3.38;;;1.40;;
20391;SDS011;10355;53.688;10.078;2023-07-13T12:00:11;4.43;;;0.80;;
20391;SDS011;10355;53.688;10.078;2023-07-13T12:02:57;2.85;;;1.00;;
20391;SDS011;10355;53.688;10.078;2023-07-13T12:05:55;1.60;;;0.77;;
20391;SDS011;10355;53.688;10.078;2023-07-13T12:08:41;1.70;;;0.77;;
20391;SDS011;10355;53.688;10.078;2023-07-13T12:11:24;3.85;;;1.30;;
20391;SDS011;10355;53.688;10.078;2023-07-13T12:14:10;1.92;;;0.80;;
20391;SDS011;10355;53.688;10.078;2023-07-13T12:16:55;2.47;;;1.00;;
20391;SDS011;10355;53.688;10.078;2023-07-13T12:19:38;4.93;;;1.30;;
20391;SDS011;10355;53.688;10.078;2023-07-13T12:22:23;2.35;;;0.93;;
20391;SDS011;10355;53.688;10.078;2023-07-13T12:25:08;3.85;;;0.93;;
20391;SDS011;10355;53.688;10.078;2023-07-13T12:27:51;3.63;;;1.25;;
20391;SDS011;10355;53.688;10.078;2023-07-13T12:30:34;7.20;;;1.25;;
20391;SDS011;10355;53.688;10.078;2023-07-13T12:33:17;5.13;;;1.40;;
20391;SDS011;10355;53.688;10.078;2023-07-13T12:36:02;4.00;;;0.93;;
20391;SDS011;10355;53.688;10.078;2023-07-13T12:38:47;2.47;;;1.00;;
20391;SDS011;10355;53.688;10.078;2023-07-13T12:41:30;3.28;;;1.00;;
20391;SDS011;10355;53.688;10.078;2023-07-13T12:44:14;4.55;;;0.90;;
20391;SDS011;10355;53.688;10.078;2023-07-13T12:47:03;2.97;;;0.85;;
20391;SDS011;10355;53.688;10.078;2023-07-13T12:49:54;3.15;;;0.93;;
20391;SDS011;10355;53.688;10.078;2023-07-13T12:52:39;3.70;;;0.80;;
20391;SDS011;10355;53.688;10.078;2023-07-13T12:55:26;5.28;;;1.35;;
20391;SDS011;10355;53.688;10.078;2023-07-13T12:58:25;2.65;;;0.93;;
20391;SDS011;10355;53.688;10.078;2023-07-13T13:01:10;3.03;;;0.85;;
20391;SDS011;10355;53.688;10.078;2023-07-13T13:03:54;3.67;;;1.00;;
20391;SDS011;10355;53.688;10.078;2023-07-13T13:06:38;7.22;;;1.10;;
20391;SDS011;10355;53.688;10.078;2023-07-13T13:09:22;3.33;;;1.00;;
20391;SDS011;10355;53.688;10.078;2023-07-13T13:12:07;2.45;;;1.02;;
20391;SDS011;10355;53.688;10.078;2023-07-13T13:14:55;6.38;;;1.02;;
20391;SDS011;10355;53.688;10.078;2023-07-13T13:17:38;3.28;;;1.20;;
20391;SDS011;10355;53.688;10.078;2023-07-13T13:20:21;3.72;;;0.95;;
20391;SDS011;10355;53.688;10.078;2023-07-13T13:23:04;4.93;;;1.38;;
20391;SDS011;10355;53.688;10.078;2023-07-13T13:25:50;2.13;;;1.15;;
20391;SDS011;10355;53.688;10.078;2023-07-13T13:28:34;3.80;;;1.08;;
20391;SDS011;10355;53.688;10.078;2023-07-13T13:31:17;1.95;;;0.90;;
20391;SDS011;10355;53.688;10.078;2023-07-13T13:34:00;6.05;;;1.25;;
20391;SDS011;10355;53.688;10.078;2023-07-13T13:36:43;6.97;;;1.00;;
20391;SDS011;10355;53.688;10.078;2023-07-13T13:39:28;2.67;;;1.00;;
20391;SDS011;10355;53.688;10.078;2023-07-13T13:42:12;3.60;;;1.20;;
20391;SDS011;10355;53.688;10.078;2023-07-13T13:44:56;4.15;;;1.00;;
20391;SDS011;10355;53.688;10.078;2023-07-13T13:47:41;1.83;;;1.00;;
20391;SDS011;10355;53.688;10.078;2023-07-13T13:50:24;1.45;;;0.90;;
20391;SDS011;10355;53.688;10.078;2023-07-13T13:53:08;2.35;;;0.88;;
20391;SDS011;10355;53.688;10.078;2023-07-13T13:55:52;1.40;;;0.90;;
20391;SDS011;10355;53.688;10.078;2023-07-13T13:58:36;4.68;;;1.02;;
20391;SDS011;10355;53.688;10.078;2023-07-13T14:01:21;2.17;;;0.80;;
20391;SDS011;10355;53.688;10.078;2023-07-13T14:04:06;1.38;;;0.90;;
20391;SDS011;10355;53.688;10.078;2023-07-13T14:06:50;3.67;;;1.20;;
20391;SDS011;10355;53.688;10.078;2023-07-13T14:09:32;4.38;;;1.30;;
20391;SDS011;10355;53.688;10.078;2023-07-13T14:12:15;3.03;;;1.10;;
20391;SDS011;10355;53.688;10.078;2023-07-13T14:14:58;1.90;;;1.00;;
20391;SDS011;10355;53.688;10.078;2023-07-13T14:17:43;7.30;;;1.20;;
20391;SDS011;10355;53.688;10.078;2023-07-13T14:20:26;3.30;;;1.08;;
20391;SDS011;10355;53.688;10.078;2023-07-13T14:23:12;2.45;;;1.08;;
20391;SDS011;10355;53.688;10.078;2023-07-13T14:25:55;4.90;;;1.17;;
20391;SDS011;10355;53.688;10.078;2023-07-13T14:28:38;2.30;;;1.10;;
20391;SDS011;10355;53.688;10.078;2023-07-13T14:31:25;3.97;;;1.05;;
20391;SDS011;10355;53.688;10.078;2023-07-13T14:34:13;3.90;;;1.10;;
20391;SDS011;10355;53.688;10.078;2023-07-13T14:36:56;3.17;;;1.30;;
20391;SDS011;10355;53.688;10.078;2023-07-13T14:39:39;1.70;;;0.95;;
20391;SDS011;10355;53.688;10.078;2023-07-13T14:42:23;2.38;;;1.10;;
20391;SDS011;10355;53.688;10.078;2023-07-13T14:45:11;3.17;;;1.40;;
20391;SDS011;10355;53.688;10.078;2023-07-13T14:47:55;2.65;;;1.30;;
20391;SDS011;10355;53.688;10.078;2023-07-13T14:50:39;2.22;;;1.17;;
20391;SDS011;10355;53.688;10.078;2023-07-13T14:53:24;2.92;;;1.27;;
20391;SDS011;10355;53.688;10.078;2023-07-13T14:56:09;2.13;;;0.95;;
20391;SDS011;10355;53.688;10.078;2023-07-13T14:58:53;4.10;;;1.30;;
20391;SDS011;10355;53.688;10.078;2023-07-13T15:01:36;4.47;;;1.40;;
20391;SDS011;10355;53.688;10.078;2023-07-13T15:04:21;4.00;;;1.20;;
20391;SDS011;10355;53.688;10.078;2023-07-13T15:07:07;4.35;;;1.45;;
20391;SDS011;10355;53.688;10.078;2023-07-13T15:09:52;2.40;;;1.35;;
20391;SDS011;10355;53.688;10.078;2023-07-13T15:12:35;4.15;;;1.40;;
20391;SDS011;10355;53.688;10.078;2023-07-13T15:15:18;2.90;;;1.40;;
20391;SDS011;10355;53.688;10.078;2023-07-13T15:18:01;2.30;;;1.05;;
20391;SDS011;10355;53.688;10.078;2023-07-13T15:20:45;2.95;;;1.25;;
20391;SDS011;10355;53.688;10.078;2023-07-13T15:23:29;2.45;;;1.25;;
20391;SDS011;10355;53.688;10.078;2023-07-13T15:26:13;1.65;;;1.23;;
20391;SDS011;10355;53.688;10.078;2023-07-13T15:28:56;4.22;;;1.35;;
20391;SDS011;10355;53.688;10.078;2023-07-13T15:31:39;2.88;;;1.05;;
20391;SDS011;10355;53.688;10.078;2023-07-13T15:34:24;3.90;;;1.20;;
20391;SDS011;10355;53.688;10.078;2023-07-13T15:37:11;2.63;;;1.00;;
20391;SDS011;10355;53.688;10.078;2023-07-13T15:39:56;3.67;;;0.80;;
20391;SDS011;10355;53.688;10.078;2023-07-13T15:42:39;3.17;;;0.85;;
20391;SDS011;10355;53.688;10.078;2023-07-13T15:45:23;4.45;;;0.82;;
20391;SDS011;10355;53.688;10.078;2023-07-13T15:48:11;3.75;;;1.00;;
20391;SDS011;10355;53.688;10.078;2023-07-13T15:50:55;1.95;;;0.80;;
20391;SDS011;10355;53.688;10.078;2023-07-13T15:53:42;3.03;;;0.77;;
20391;SDS011;10355;53.688;10.078;2023-07-13T15:56:28;2.60;;;0.73;;
20391;SDS011;10355;53.688;10.078;2023-07-13T15:59:11;1.30;;;0.80;;
20391;SDS011;10355;53.688;10.078;2023-07-13T16:01:55;3.90;;;1.00;;
20391;SDS011;10355;53.688;10.078;2023-07-13T16:04:38;4.97;;;0.90;;
20391;SDS011;10355;53.688;10.078;2023-07-13T16:07:21;3.50;;;0.90;;
20391;SDS011;10355;53.688;10.078;2023-07-13T16:10:04;3.70;;;0.70;;
20391;SDS011;10355;53.688;10.078;2023-07-13T16:12:50;2.90;;;0.80;;
20391;SDS011;10355;53.688;10.078;2023-07-13T16:15:32;2.47;;;0.82;;
20391;SDS011;10355;53.688;10.078;2023-07-13T16:18:15;3.22;;;0.65;;
20391;SDS011;10355;53.688;10.078;2023-07-13T16:21:00;4.10;;;1.00;;